Strona główna
METAR-TAF:

METAR-TAF

Lotnisko :

Les Ajoncs

La Roche-sur-Yon, Francja

Szerokość geograficzna: 46-42N, Długość geograficzna: 001-23W, wysokość: 90 m

Aktualna obserwacja pogody

Raport powstał 42 minut temu, godzina 13:00 UTC
Wiatr 5 kt z kierunków zmiennych
Temperatura 33°C
Wilgotność 30%
Ciśnienie 1016 hPa
Widzialność 10 km lub więcej
Brak chmur poniżej 1500 m i brak chmur cumulonimbus

METAR: LFRI 241300Z AUTO VRB05KT CAVOK 33/13 Q1016 NOSIG

czas: 15:42 (13:42 UTC)

Prognoza

Raport powstał 2 godziny i 42 minut temu, godzina 11:00 UTC
Prognoza ważna od 24 godzina 12 UTC do 25 godzina 12 UTC
Wiatr 4 kt z kierunków zmiennych
Widzialność 10 km lub więcej
Brak chmur poniżej 1500 m i brak chmur cumulonimbus
Przejściowo
od 24 godzina 15 UTC do 24 godzina 19 UTC
Wiatr 10 kt od zachodnio-południowy zachód
Przejściowo
od 24 godzina 22 UTC do 25 godzina 07 UTC
Widzialność: 4000 m
Przerywane chmury na wysokości 400 ft
zamglenie

TAF: LFRI 241100Z 2412/2512 VRB04KT CAVOK TEMPO 2415/2419 24010KT TEMPO 2422/2507 4000 BR BKN004

Obserwacja i prognoza pogody dla ponad 4000 lotnisk (raport METAR i TAF).

Dostępne stacje oznaczono żółtymi i czerwonymi punktami na mapie.

Najedź kursorem aby zobaczyć nazwę stacji.

Kliknij aby zobaczyć obserwacje i prognozy pogody.

Aby zmienić mapę: kliknij na zielony przycisk z czarnym krzyżykiem, aby powiększyć; na zielony przycisk z myślnikiem, aby pomniejszyć; na zielone strzałki, aby przejść do map sąsiednich.


METAR-TAF: